createdAt,value
2018-11-03T00:00:54.494Z,9.58
2018-11-03T00:03:23.050Z,9.59
2018-11-03T00:05:51.545Z,9.60
2018-11-03T00:08:20.543Z,9.60
2018-11-03T00:10:49.301Z,9.62
2018-11-03T00:13:17.809Z,9.63
2018-11-03T00:15:46.411Z,9.64
2018-11-03T00:18:14.987Z,9.66
2018-11-03T00:20:43.489Z,9.66
2018-11-03T00:23:12.357Z,9.67
2018-11-03T00:25:41.110Z,9.68
2018-11-03T00:28:09.674Z,9.69
2018-11-03T00:30:38.468Z,9.69
2018-11-03T00:33:07.243Z,9.70
2018-11-03T00:35:35.730Z,9.70
2018-11-03T00:38:04.462Z,9.70
2018-11-03T00:40:33.225Z,9.69
2018-11-03T00:43:01.659Z,9.71
2018-11-03T00:45:30.823Z,9.70
2018-11-03T00:47:59.357Z,9.70
2018-11-03T00:50:27.881Z,9.71
2018-11-03T00:52:56.481Z,9.71
2018-11-03T00:55:25.105Z,9.72
2018-11-03T00:57:53.610Z,9.73
2018-11-03T01:00:22.225Z,9.57
2018-11-03T01:02:51.937Z,9.74
2018-11-03T01:05:20.570Z,9.72
2018-11-03T01:07:49.190Z,9.73
2018-11-03T01:10:18.146Z,9.73
2018-11-03T01:12:46.669Z,9.73
2018-11-03T01:15:16.951Z,9.74
2018-11-03T01:17:45.729Z,9.74
2018-11-03T01:20:15.410Z,9.74
2018-11-03T01:22:44.792Z,9.74
2018-11-03T01:25:13.401Z,9.76
2018-11-03T01:27:41.881Z,9.76
2018-11-03T01:30:13.984Z,9.76
2018-11-03T01:32:42.552Z,9.79
2018-11-03T01:35:11.187Z,9.81
2018-11-03T01:37:40.416Z,9.80
2018-11-03T01:40:10.573Z,9.81
2018-11-03T01:42:39.239Z,9.08
2018-11-03T01:45:08.187Z,9.83
2018-11-03T01:47:37.009Z,9.80
2018-11-03T01:50:07.817Z,9.84
2018-11-03T01:52:37.379Z,9.84
2018-11-03T01:55:06.757Z,9.85
2018-11-03T01:57:35.908Z,9.86
2018-11-03T02:00:04.687Z,9.88
2018-11-03T02:02:33.213Z,9.88
2018-11-03T02:05:01.744Z,9.77
2018-11-03T02:07:30.289Z,9.91
2018-11-03T02:09:59.082Z,9.93
2018-11-03T02:12:28.057Z,9.94
2018-11-03T02:14:59.783Z,9.93
2018-11-03T02:17:29.723Z,9.96
2018-11-03T02:19:58.193Z,9.96
2018-11-03T02:22:26.806Z,10.00
2018-11-03T02:24:55.509Z,9.99
2018-11-03T02:27:24.058Z,10.01
2018-11-03T02:29:52.609Z,10.01
2018-11-03T02:32:21.224Z,10.00
2018-11-03T02:34:49.697Z,10.02
2018-11-03T02:37:18.298Z,10.03
2018-11-03T02:39:47.025Z,10.02
2018-11-03T02:42:15.469Z,10.03
2018-11-03T02:44:44.015Z,10.02
2018-11-03T02:47:13.848Z,10.06
2018-11-03T02:49:42.311Z,10.06
2018-11-03T02:52:10.848Z,10.06
2018-11-03T02:54:39.533Z,10.07
2018-11-03T02:57:08.061Z,10.06
2018-11-03T02:59:36.739Z,10.07
2018-11-03T03:02:05.866Z,10.06
2018-11-03T03:04:34.346Z,10.07
2018-11-03T03:07:02.902Z,10.06
2018-11-03T03:09:31.506Z,10.05
2018-11-03T03:11:59.966Z,10.06
2018-11-03T03:14:28.755Z,10.07
2018-11-03T03:16:57.401Z,10.07
2018-11-03T03:19:25.876Z,10.04
2018-11-03T03:21:54.470Z,10.03
2018-11-03T03:24:23.045Z,10.04
2018-11-03T03:26:51.558Z,10.02
2018-11-03T03:29:20.162Z,10.01
2018-11-03T03:31:48.703Z,10.02
2018-11-03T03:34:17.283Z,10.02
2018-11-03T03:36:46.162Z,10.02
2018-11-03T03:39:15.147Z,10.01
2018-11-03T03:41:43.639Z,10.01
2018-11-03T03:44:12.454Z,10.00
2018-11-03T03:46:41.304Z,10.00
2018-11-03T03:49:09.800Z,9.97
2018-11-03T03:51:38.510Z,9.97
2018-11-03T03:54:07.298Z,9.94
2018-11-03T03:56:35.793Z,9.94
2018-11-03T03:59:04.881Z,9.91
2018-11-03T04:01:33.492Z,9.89
2018-11-03T04:04:01.980Z,9.89
2018-11-03T04:06:30.994Z,9.88
2018-11-03T04:08:59.710Z,9.86
2018-11-03T04:11:28.231Z,9.85
2018-11-03T04:13:57.051Z,9.85
2018-11-03T04:16:26.090Z,9.84
2018-11-03T04:18:54.565Z,9.84
2018-11-03T04:21:30.484Z,9.83
2018-11-03T04:23:59.337Z,9.84
2018-11-03T04:26:29.257Z,9.65
2018-11-03T04:28:58.381Z,9.78
2018-11-03T04:31:27.345Z,9.76
2018-11-03T04:33:55.909Z,9.76
2018-11-03T04:36:24.989Z,9.74
2018-11-03T04:38:53.452Z,9.74
2018-11-03T04:41:21.907Z,9.71
2018-11-03T04:43:51.105Z,9.68
2018-11-03T04:46:19.579Z,9.65
2018-11-03T04:48:48.101Z,9.63
2018-11-03T04:51:16.826Z,9.59
2018-11-03T04:53:45.277Z,9.54
2018-11-03T04:56:13.725Z,9.50
2018-11-03T04:58:42.892Z,9.51
2018-11-03T05:01:11.357Z,9.53
2018-11-03T05:03:39.837Z,9.57
2018-11-03T05:06:09.213Z,9.59
2018-11-03T05:08:37.853Z,9.60
2018-11-03T05:11:06.335Z,9.61
2018-11-03T05:13:35.296Z,9.65
2018-11-03T05:16:03.778Z,9.67
2018-11-03T05:18:32.372Z,9.70
2018-11-03T05:21:01.684Z,9.70
2018-11-03T05:23:30.167Z,9.71
2018-11-03T05:25:58.614Z,9.71
2018-11-03T05:28:27.342Z,9.71
2018-11-03T05:30:55.916Z,9.73
2018-11-03T05:33:24.329Z,9.72
2018-11-03T05:35:53.310Z,9.73
2018-11-03T05:38:21.792Z,9.73
2018-11-03T05:40:50.413Z,9.73
2018-11-03T05:43:19.153Z,9.72
2018-11-03T05:45:47.710Z,9.71
2018-11-03T05:48:16.170Z,9.70
2018-11-03T05:50:44.951Z,9.68
2018-11-03T05:53:13.412Z,9.68
2018-11-03T05:55:42.289Z,9.68
2018-11-03T05:58:10.952Z,9.67
2018-11-03T06:00:39.421Z,9.66
2018-11-03T06:03:07.901Z,9.66
2018-11-03T06:05:36.853Z,9.66
2018-11-03T06:08:05.573Z,9.66
2018-11-03T06:10:34.009Z,9.65
2018-11-03T06:13:03.113Z,9.65
2018-11-03T06:15:31.605Z,9.63
2018-11-03T06:18:00.123Z,9.62
2018-11-03T06:20:29.489Z,9.61
2018-11-03T06:22:58.020Z,9.59
2018-11-03T06:25:26.522Z,9.59
2018-11-03T06:27:55.530Z,9.59
2018-11-03T06:30:23.983Z,9.57
2018-11-03T06:32:52.430Z,9.57
2018-11-03T06:35:21.606Z,9.59
2018-11-03T06:37:49.998Z,9.57
2018-11-03T06:40:18.494Z,9.57
2018-11-03T06:42:47.698Z,9.57
2018-11-03T06:45:16.170Z,9.57
2018-11-03T06:47:44.662Z,9.57
2018-11-03T06:50:14.066Z,9.56
2018-11-03T06:52:42.573Z,9.56
2018-11-03T06:55:11.073Z,9.56
2018-11-03T06:57:39.795Z,9.57
2018-11-03T07:00:09.421Z,9.57
2018-11-03T07:02:37.977Z,9.57
2018-11-03T07:05:07.209Z,9.56
2018-11-03T07:07:35.706Z,9.56
2018-11-03T07:10:04.428Z,9.56
2018-11-03T07:12:33.951Z,9.55
2018-11-03T07:15:02.255Z,9.53
2018-11-03T07:17:30.726Z,9.53
2018-11-03T07:19:59.801Z,9.52
2018-11-03T07:22:28.437Z,9.51
2018-11-03T07:24:56.938Z,9.51
2018-11-03T07:27:26.437Z,9.49
2018-11-03T07:29:55.062Z,9.48
2018-11-03T07:32:23.498Z,9.47
2018-11-03T07:34:52.409Z,9.44
2018-11-03T07:37:21.056Z,9.28
2018-11-03T07:39:49.530Z,9.46
2018-11-03T07:42:18.554Z,9.47
2018-11-03T07:44:47.011Z,9.46
2018-11-03T07:47:15.484Z,9.43
2018-11-03T07:49:44.360Z,9.44
2018-11-03T07:52:12.820Z,9.52
2018-11-03T07:54:41.825Z,9.60
2018-11-03T07:57:10.480Z,9.69
2018-11-03T07:59:38.935Z,9.83
2018-11-03T08:02:07.754Z,10.04
2018-11-03T08:04:36.338Z,10.15
2018-11-03T08:07:05.135Z,10.22
2018-11-03T08:09:33.835Z,10.27
2018-11-03T08:12:02.503Z,10.22
2018-11-03T08:14:31.208Z,10.13
2018-11-03T08:16:59.872Z,10.04
2018-11-03T08:19:28.578Z,9.94
2018-11-03T08:21:57.045Z,9.92
2018-11-03T08:24:25.717Z,9.92
2018-11-03T08:26:54.298Z,9.92
2018-11-03T08:29:22.729Z,9.86
2018-11-03T08:31:51.469Z,9.84
2018-11-03T08:34:20.093Z,9.76
2018-11-03T08:36:48.557Z,9.74
2018-11-03T08:39:17.543Z,9.75
2018-11-03T08:41:46.444Z,9.76
2018-11-03T08:44:14.921Z,9.79
2018-11-03T08:46:43.445Z,9.74
2018-11-03T08:49:12.005Z,9.77
2018-11-03T08:51:40.453Z,9.78
2018-11-03T08:54:09.004Z,9.79
2018-11-03T08:56:37.885Z,9.88
2018-11-03T08:59:06.797Z,10.02
2018-11-03T09:01:35.360Z,10.13
2018-11-03T09:04:03.949Z,10.12
2018-11-03T09:06:32.445Z,10.20
2018-11-03T09:09:01.018Z,10.27
2018-11-03T09:11:30.024Z,10.29
2018-11-03T09:13:58.477Z,10.24
2018-11-03T09:16:27.422Z,10.19
2018-11-03T09:18:56.009Z,10.19
2018-11-03T09:21:24.501Z,10.27
2018-11-03T09:23:53.178Z,10.46
2018-11-03T09:26:22.421Z,10.48
2018-11-03T09:28:50.897Z,10.86
2018-11-03T09:31:19.418Z,11.32
2018-11-03T09:33:48.090Z,11.25
2018-11-03T09:36:16.562Z,11.15
2018-11-03T09:38:45.362Z,11.04
2018-11-03T09:41:14.222Z,10.94
2018-11-03T09:43:42.709Z,10.87
2018-11-03T09:46:11.239Z,10.89
2018-11-03T09:48:40.334Z,10.92
2018-11-03T09:51:08.914Z,10.82
2018-11-03T09:53:37.520Z,10.69
2018-11-03T09:56:06.430Z,10.62
2018-11-03T09:58:35.014Z,10.60
2018-11-03T10:01:03.752Z,10.62
2018-11-03T10:03:32.547Z,10.54
2018-11-03T10:06:01.061Z,10.36
2018-11-03T10:08:29.797Z,10.29
2018-11-03T10:10:58.610Z,10.33
2018-11-03T10:13:27.084Z,10.50
2018-11-03T10:15:55.776Z,10.46
2018-11-03T10:18:24.564Z,10.40
2018-11-03T10:20:53.026Z,9.66
2018-11-03T10:23:21.562Z,10.42
2018-11-03T10:25:50.306Z,10.43
2018-11-03T10:28:18.941Z,10.51
2018-11-03T10:30:47.683Z,10.50
2018-11-03T10:33:16.276Z,10.53
2018-11-03T10:35:44.839Z,10.54
2018-11-03T10:38:13.385Z,10.58
2018-11-03T10:40:42.165Z,10.58
2018-11-03T10:43:10.657Z,10.58
2018-11-03T10:45:39.347Z,10.43
2018-11-03T10:48:08.176Z,10.37
2018-11-03T10:50:36.738Z,10.36
2018-11-03T10:53:06.254Z,10.27
2018-11-03T10:55:34.968Z,10.26
2018-11-03T10:58:03.489Z,10.29
2018-11-03T11:00:37.313Z,10.35
2018-11-03T11:03:10.838Z,10.61
2018-11-03T11:05:40.808Z,10.83
2018-11-03T11:08:14.506Z,10.93
2018-11-03T11:10:48.389Z,11.11
2018-11-03T11:13:21.422Z,11.42
2018-11-03T11:15:51.357Z,11.69
2018-11-03T11:18:19.913Z,11.64
2018-11-03T11:20:48.394Z,11.49
2018-11-03T11:23:17.394Z,11.30
2018-11-03T11:25:46.084Z,10.99
2018-11-03T11:28:14.582Z,10.82
2018-11-03T11:30:44.486Z,10.73
2018-11-03T11:33:14.389Z,10.57
2018-11-03T11:35:43.166Z,10.48
2018-11-03T11:38:12.651Z,10.41
2018-11-03T11:40:41.391Z,10.33
2018-11-03T11:43:10.929Z,10.31
2018-11-03T11:45:39.899Z,10.24
2018-11-03T11:48:08.477Z,10.17
2018-11-03T11:50:37.128Z,10.08
2018-11-03T11:53:06.193Z,10.01
2018-11-03T11:55:35.079Z,10.01
2018-11-03T11:58:03.631Z,9.99
2018-11-03T12:00:32.565Z,9.95
2018-11-03T12:03:01.235Z,9.90
2018-11-03T12:05:29.693Z,9.92
2018-11-03T12:07:58.422Z,9.95
2018-11-03T12:10:27.344Z,10.00
2018-11-03T12:12:55.829Z,9.91
2018-11-03T12:15:24.670Z,9.86
2018-11-03T12:17:53.432Z,9.86
2018-11-03T12:20:21.879Z,9.80
2018-11-03T12:22:51.031Z,9.81
2018-11-03T12:25:19.777Z,9.78
2018-11-03T12:27:48.245Z,9.68
2018-11-03T12:30:16.837Z,9.69
2018-11-03T12:32:45.525Z,9.69
2018-11-03T12:35:14.070Z,9.69
2018-11-03T12:37:43.146Z,9.66
2018-11-03T12:40:14.065Z,9.58
2018-11-03T12:42:42.569Z,9.52
2018-11-03T12:45:11.789Z,9.50
2018-11-03T12:47:40.994Z,9.46
2018-11-03T12:50:11.450Z,9.47
2018-11-03T12:52:40.084Z,9.49
2018-11-03T12:55:10.171Z,9.51
2018-11-03T12:57:39.111Z,9.44
2018-11-03T13:00:09.605Z,9.46
2018-11-03T13:02:38.377Z,9.41
2018-11-03T13:05:07.703Z,9.37
2018-11-03T13:07:36.216Z,9.30
2018-11-03T13:10:04.849Z,9.28
2018-11-03T13:12:33.301Z,9.28
2018-11-03T13:15:02.082Z,9.27
2018-11-03T13:17:30.755Z,9.28
2018-11-03T13:19:59.289Z,9.26
2018-11-03T13:22:28.443Z,9.20
2018-11-03T13:24:57.213Z,9.14
2018-11-03T13:27:25.742Z,9.08
2018-11-03T13:29:54.444Z,8.98
2018-11-03T13:32:23.258Z,9.00
2018-11-03T13:34:51.956Z,9.06
2018-11-03T13:37:20.556Z,9.01
2018-11-03T13:39:49.104Z,9.02
2018-11-03T13:42:17.608Z,9.06
2018-11-03T13:44:46.377Z,9.07
2018-11-03T13:47:15.038Z,9.06
2018-11-03T13:49:43.531Z,9.02
2018-11-03T13:52:12.130Z,9.01
2018-11-03T13:54:41.129Z,8.99
2018-11-03T13:57:09.777Z,8.93
2018-11-03T13:59:38.234Z,8.88
2018-11-03T14:02:06.909Z,8.85
2018-11-03T14:04:35.429Z,8.81
2018-11-03T14:07:04.431Z,8.80
2018-11-03T14:09:33.133Z,8.77
2018-11-03T14:12:01.644Z,8.75
2018-11-03T14:14:30.532Z,8.74
2018-11-03T14:16:59.161Z,8.72
2018-11-03T14:19:27.686Z,8.69
2018-11-03T14:21:56.284Z,8.70
2018-11-03T14:24:25.205Z,8.71
2018-11-03T14:26:54.200Z,8.72
2018-11-03T14:29:22.887Z,8.73
2018-11-03T14:31:51.714Z,8.71
2018-11-03T14:34:20.218Z,8.71
2018-11-03T14:36:49.314Z,8.71
2018-11-03T14:39:18.101Z,8.71
2018-11-03T14:41:46.622Z,8.73
2018-11-03T14:44:15.164Z,8.70
2018-11-03T14:46:43.638Z,8.64
2018-11-03T14:49:12.549Z,8.61
2018-11-03T14:51:41.174Z,8.61
2018-11-03T14:54:09.766Z,8.59
2018-11-03T14:56:38.316Z,8.54
2018-11-03T14:59:07.050Z,8.56
2018-11-03T15:01:35.650Z,8.53
2018-11-03T15:04:04.222Z,8.54
2018-11-03T15:06:32.748Z,8.55
2018-11-03T15:09:01.593Z,8.52
2018-11-03T15:11:30.095Z,8.50
2018-11-03T15:13:59.124Z,8.50
2018-11-03T15:16:27.334Z,8.49
2018-11-03T15:18:55.825Z,8.44
2018-11-03T15:21:25.005Z,8.48
2018-11-03T15:23:53.454Z,8.49
2018-11-03T15:26:21.965Z,8.50
2018-11-03T15:28:51.041Z,8.52
2018-11-03T15:31:19.505Z,8.54
2018-11-03T15:33:48.709Z,8.54
2018-11-03T15:36:17.342Z,8.52
2018-11-03T15:38:45.957Z,8.51
2018-11-03T15:41:14.503Z,8.48
2018-11-03T15:43:43.765Z,8.46
2018-11-03T15:46:12.210Z,8.45
2018-11-03T15:48:40.726Z,8.46
2018-11-03T15:51:09.354Z,8.49
2018-11-03T15:53:37.785Z,8.47
2018-11-03T15:56:06.518Z,8.42
2018-11-03T15:58:35.582Z,8.44
2018-11-03T16:01:04.080Z,8.45
2018-11-03T16:03:32.589Z,8.47
2018-11-03T16:06:01.194Z,8.50
2018-11-03T16:08:29.662Z,8.49
2018-11-03T16:10:58.190Z,8.46
2018-11-03T16:13:27.063Z,8.49
2018-11-03T16:15:55.571Z,8.50
2018-11-03T16:18:24.037Z,8.52
2018-11-03T16:20:52.833Z,8.50
2018-11-03T16:23:21.448Z,8.48
2018-11-03T16:25:50.098Z,8.44
2018-11-03T16:28:18.845Z,8.39
2018-11-03T16:30:47.326Z,8.36
2018-11-03T16:33:15.803Z,8.35
2018-11-03T16:35:44.633Z,8.33
2018-11-03T16:38:19.421Z,8.30
2018-11-03T16:40:48.185Z,8.28
2018-11-03T16:43:16.768Z,8.28
2018-11-03T16:45:45.318Z,8.26
2018-11-03T16:48:14.194Z,8.24
2018-11-03T16:50:42.653Z,8.15
2018-11-03T16:53:11.168Z,8.10
2018-11-03T16:55:40.389Z,8.05
2018-11-03T16:58:08.857Z,7.99
2018-11-03T17:00:37.539Z,7.90
2018-11-03T17:03:06.615Z,7.80
2018-11-03T17:05:35.125Z,7.71
2018-11-03T17:08:03.800Z,7.63
2018-11-03T17:10:33.032Z,7.57
2018-11-03T17:13:01.549Z,7.53
2018-11-03T17:15:30.410Z,7.47
2018-11-03T17:17:59.338Z,7.44
2018-11-03T17:20:27.795Z,7.39
2018-11-03T17:22:56.396Z,7.34
2018-11-03T17:25:25.030Z,7.29
2018-11-03T17:27:53.481Z,7.26
2018-11-03T17:30:21.951Z,7.21
2018-11-03T17:32:50.831Z,7.17
2018-11-03T17:35:19.279Z,7.15
2018-11-03T17:37:47.777Z,7.09
2018-11-03T17:40:16.465Z,7.05
2018-11-03T17:42:45.241Z,6.99
2018-11-03T17:45:14.033Z,6.96
2018-11-03T17:47:43.260Z,6.92
2018-11-03T17:50:13.249Z,6.88
2018-11-03T17:52:41.900Z,6.86
2018-11-03T17:55:11.051Z,6.82
2018-11-03T17:57:39.516Z,6.76
2018-11-03T18:00:11.323Z,6.71
2018-11-03T18:02:40.008Z,6.67
2018-11-03T18:05:08.455Z,6.62
2018-11-03T18:07:37.025Z,6.59
2018-11-03T18:10:06.652Z,6.56
2018-11-03T18:12:35.101Z,6.51
2018-11-03T18:15:03.664Z,6.51
2018-11-03T18:17:32.760Z,6.49
2018-11-03T18:20:04.473Z,6.43
2018-11-03T18:22:38.097Z,6.38
2018-11-03T18:25:09.905Z,6.37
2018-11-03T18:27:43.809Z,6.31
2018-11-03T18:30:15.418Z,6.29
2018-11-03T18:32:46.974Z,6.26
2018-11-03T18:37:55.905Z,6.22
2018-11-03T18:40:25.577Z,6.21
2018-11-03T18:43:01.125Z,6.18
2018-11-03T18:45:30.969Z,6.15
2018-11-03T18:48:04.225Z,6.12
2018-11-03T18:50:35.591Z,6.09
2018-11-03T18:53:07.247Z,6.05
2018-11-03T18:55:37.914Z,6.00
2018-11-03T18:58:09.297Z,5.98
2018-11-03T19:00:40.703Z,5.94
2018-11-03T19:03:14.415Z,5.90
2018-11-03T19:05:47.688Z,5.87
2018-11-03T19:08:21.489Z,5.85
2018-11-03T19:10:52.946Z,5.82
2018-11-03T19:13:23.235Z,5.78
2018-11-03T19:15:53.618Z,5.76
2018-11-03T19:18:23.981Z,5.73
2018-11-03T19:20:55.300Z,5.71
2018-11-03T19:23:26.058Z,5.68
2018-11-03T19:25:58.695Z,5.67
2018-11-03T19:28:32.789Z,5.65
2018-11-03T19:31:03.625Z,5.09
2018-11-03T19:33:34.519Z,2.32
2018-11-03T19:36:03.818Z,5.62
2018-11-03T19:38:34.138Z,5.62
2018-11-03T19:41:05.695Z,5.61
2018-11-03T19:43:38.414Z,5.61
2018-11-03T19:46:08.217Z,5.60
2018-11-03T19:48:40.365Z,5.59
2018-11-03T19:51:14.215Z,5.60
2018-11-03T19:53:46.265Z,5.58
2018-11-03T19:56:16.851Z,5.58
2018-11-03T19:58:47.632Z,5.57
2018-11-03T20:01:17.970Z,5.57
2018-11-03T20:03:49.927Z,5.56
2018-11-03T20:06:19.802Z,5.57
2018-11-03T20:08:51.389Z,5.59
2018-11-03T20:11:21.713Z,5.57
2018-11-03T20:13:52.896Z,5.55
2018-11-03T20:16:27.338Z,5.53
2018-11-03T20:18:59.051Z,5.53
2018-11-03T20:21:27.949Z,5.54
2018-11-03T20:23:59.566Z,5.55
2018-11-03T20:26:28.557Z,5.55
2018-11-03T20:28:59.056Z,5.57
2018-11-03T20:31:32.495Z,5.54
2018-11-03T20:34:04.538Z,5.54
2018-11-03T20:36:35.621Z,5.54
2018-11-03T20:39:07.895Z,3.08
2018-11-03T20:41:37.454Z,5.54
2018-11-03T20:44:09.085Z,5.54
2018-11-03T20:46:40.556Z,5.53
2018-11-03T20:49:12.484Z,5.50
2018-11-03T20:51:47.162Z,5.49
2018-11-03T20:54:18.754Z,5.48
2018-11-03T20:56:49.891Z,5.48
2018-11-03T20:59:22.389Z,5.45
2018-11-03T21:01:51.437Z,5.43
2018-11-03T21:04:24.491Z,5.43
2018-11-03T21:06:59.032Z,5.40
2018-11-03T21:09:29.616Z,5.40
2018-11-03T21:11:58.293Z,5.44
2018-11-03T21:14:29.077Z,5.48
2018-11-03T21:17:01.029Z,5.53
2018-11-03T21:19:38.273Z,5.55
2018-11-03T21:22:12.496Z,5.54
2018-11-03T21:24:43.177Z,5.54
2018-11-03T21:27:16.748Z,5.51
2018-11-03T21:29:48.337Z,2.34
2018-11-03T21:32:22.236Z,5.53
2018-11-03T21:34:53.367Z,5.51
2018-11-03T21:37:26.247Z,5.47
2018-11-03T21:39:56.216Z,5.47
2018-11-03T21:42:31.758Z,5.47
2018-11-03T21:45:02.452Z,5.44
2018-11-03T21:47:31.965Z,5.41
2018-11-03T21:50:01.577Z,5.40
2018-11-03T21:52:31.340Z,5.38
2018-11-03T21:55:00.869Z,5.39
2018-11-03T21:57:30.491Z,5.39
2018-11-03T22:00:00.464Z,5.38
2018-11-03T22:02:30.849Z,3.57
2018-11-03T22:05:01.894Z,5.39
2018-11-03T22:07:31.921Z,5.39
2018-11-03T22:10:02.315Z,5.39
2018-11-03T22:12:32.694Z,5.40
2018-11-03T22:15:06.186Z,5.40
2018-11-03T22:17:34.844Z,5.43
2018-11-03T22:20:04.500Z,5.42
2018-11-03T22:22:33.889Z,5.42
2018-11-03T22:25:04.283Z,5.44
2018-11-03T22:27:33.762Z,5.45
2018-11-03T22:30:03.134Z,5.49
2018-11-03T22:32:33.313Z,5.51
2018-11-03T22:35:02.721Z,5.55
2018-11-03T22:37:31.709Z,5.55
2018-11-03T22:40:01.319Z,5.59
2018-11-03T22:42:29.814Z,5.63
2018-11-03T22:44:58.332Z,5.62
2018-11-03T22:47:27.617Z,5.64
2018-11-03T22:49:56.040Z,5.65
2018-11-03T22:52:24.486Z,5.64
2018-11-03T22:54:53.159Z,5.63
2018-11-03T22:57:21.638Z,5.63
2018-11-03T22:59:50.096Z,5.62
2018-11-03T23:02:19.133Z,5.63
2018-11-03T23:04:47.599Z,5.60
2018-11-03T23:07:16.068Z,5.60
2018-11-03T23:09:44.746Z,5.60
2018-11-03T23:12:13.242Z,5.60
2018-11-03T23:14:42.094Z,5.61
2018-11-03T23:17:11.283Z,5.60
2018-11-03T23:19:39.953Z,5.60
2018-11-03T23:22:08.658Z,5.58
2018-11-03T23:24:37.595Z,5.55
2018-11-03T23:27:06.345Z,5.54
2018-11-03T23:29:34.923Z,5.54
2018-11-03T23:32:04.318Z,5.53
2018-11-03T23:34:32.855Z,5.53
2018-11-03T23:37:01.343Z,5.52
2018-11-03T23:39:30.602Z,5.52
2018-11-03T23:41:59.150Z,5.54
2018-11-03T23:44:27.833Z,5.55
2018-11-03T23:46:56.855Z,5.55
2018-11-03T23:49:25.566Z,5.54
2018-11-03T23:51:54.139Z,5.56
2018-11-03T23:54:23.407Z,5.58
2018-11-03T23:56:51.940Z,5.58
2018-11-03T23:59:20.474Z,5.58
